createdAt,value
2023-05-11T00:00:11.213Z,98729.84
2023-05-11T00:02:40.325Z,98725.13
2023-05-11T00:05:11.414Z,98727.78
2023-05-11T00:07:40.187Z,98725.03
2023-05-11T00:10:10.608Z,98723.31
2023-05-11T00:12:39.362Z,98724.25
2023-05-11T00:15:09.637Z,98724.63
2023-05-11T00:17:38.377Z,98720.00
2023-05-11T00:20:08.974Z,98723.41
2023-05-11T00:22:39.309Z,98721.09
2023-05-11T00:25:09.118Z,98719.25
2023-05-11T00:27:37.778Z,98720.78
2023-05-11T00:30:08.422Z,98712.13
2023-05-11T00:32:37.120Z,98715.22
2023-05-11T00:35:06.940Z,98714.56
2023-05-11T00:37:35.674Z,98709.25
2023-05-11T00:40:07.069Z,98704.97
2023-05-11T00:42:36.216Z,98713.38
2023-05-11T00:45:06.150Z,98706.81
2023-05-11T00:47:34.975Z,98704.28
2023-05-11T00:50:03.928Z,98713.88
2023-05-11T00:52:32.712Z,98706.97
2023-05-11T00:55:01.674Z,98714.81
2023-05-11T00:57:33.401Z,98713.53
2023-05-11T01:00:04.412Z,98711.06
2023-05-11T01:02:33.518Z,98711.06
2023-05-11T01:05:02.763Z,98710.34
2023-05-11T01:07:39.777Z,98702.53
2023-05-11T01:10:20.926Z,98707.16
2023-05-11T01:13:03.901Z,98703.47
2023-05-11T01:15:42.380Z,98708.31
2023-05-11T01:18:25.315Z,98706.56
2023-05-11T01:20:59.738Z,98707.38
2023-05-11T01:24:16.716Z,98706.63
2023-05-11T01:27:08.118Z,98704.09
2023-05-11T01:30:14.787Z,98707.16
2023-05-11T01:32:47.520Z,98704.53
2023-05-11T01:35:22.208Z,98708.19
2023-05-11T01:37:55.986Z,98704.47
2023-05-11T01:40:29.986Z,98703.47
2023-05-11T01:43:05.495Z,98700.59
2023-05-11T01:45:40.503Z,98704.97
2023-05-11T01:48:18.513Z,98713.91
2023-05-11T01:50:51.077Z,98707.09
2023-05-11T01:53:22.768Z,98706.91
2023-05-11T01:55:53.929Z,98712.13
2023-05-11T01:58:25.870Z,98709.06
2023-05-11T02:00:55.779Z,98709.44
2023-05-11T02:03:29.678Z,98710.31
2023-05-11T02:06:02.010Z,98707.84
2023-05-11T02:08:33.804Z,98710.13
2023-05-11T02:11:05.324Z,98716.31
2023-05-11T02:13:37.613Z,98711.19
2023-05-11T02:16:10.315Z,98714.69
2023-05-11T02:18:43.669Z,98711.34
2023-05-11T02:21:16.764Z,98709.19
2023-05-11T02:23:49.800Z,98711.66
2023-05-11T02:26:18.876Z,98717.03
2023-05-11T02:28:47.728Z,98716.69
2023-05-11T02:31:26.365Z,98721.31
2023-05-11T02:34:04.518Z,98719.38
2023-05-11T02:36:38.849Z,98713.66
2023-05-11T02:39:13.759Z,98716.84
2023-05-11T02:41:47.716Z,98714.81
2023-05-11T02:44:21.328Z,98713.75
2023-05-11T02:46:52.777Z,98708.56
2023-05-11T02:49:26.673Z,98719.75
2023-05-11T02:51:58.818Z,98713.66
2023-05-11T02:54:30.268Z,98715.53
2023-05-11T02:56:59.868Z,98711.16
2023-05-11T02:59:29.700Z,98714.75
2023-05-11T03:02:00.110Z,98711.84
2023-05-11T03:04:30.718Z,98705.84
2023-05-11T03:06:59.447Z,98709.56
2023-05-11T03:09:28.262Z,98712.97
2023-05-11T03:11:57.871Z,98709.38
2023-05-11T03:14:27.896Z,98713.94
2023-05-11T03:17:00.524Z,98709.53
2023-05-11T03:19:32.236Z,98716.03
2023-05-11T03:22:02.237Z,98709.34
2023-05-11T03:24:32.589Z,98718.03
2023-05-11T03:27:03.882Z,98708.34
2023-05-11T03:29:38.488Z,98709.16
2023-05-11T03:32:07.687Z,98707.03
2023-05-11T03:34:40.976Z,98712.53
2023-05-11T03:37:14.629Z,98712.53
2023-05-11T03:39:49.157Z,98710.44
2023-05-11T03:42:20.914Z,98713.00
2023-05-11T03:44:55.956Z,98708.28
2023-05-11T03:47:27.096Z,98711.00
2023-05-11T03:50:00.064Z,98714.53
2023-05-11T03:52:29.613Z,98709.16
2023-05-11T03:54:58.661Z,98716.22
2023-05-11T03:57:28.357Z,98701.72
2023-05-11T03:59:57.666Z,98705.03
2023-05-11T04:02:30.410Z,98710.94
2023-05-11T04:05:01.705Z,98695.97
2023-05-11T04:07:32.869Z,98707.84
2023-05-11T04:10:01.744Z,98701.41
2023-05-11T04:12:30.571Z,98705.69
2023-05-11T04:14:59.406Z,98705.69
2023-05-11T04:17:28.546Z,98708.66
2023-05-11T04:19:57.475Z,98706.31
2023-05-11T04:22:27.760Z,98698.78
2023-05-11T04:24:56.644Z,98705.81
2023-05-11T04:27:25.470Z,98706.31
2023-05-11T04:29:54.210Z,98705.81
2023-05-11T04:32:23.626Z,98705.56
2023-05-11T04:34:52.733Z,98709.59
2023-05-11T04:37:24.518Z,98713.91
2023-05-11T04:39:55.835Z,98709.97
2023-05-11T04:42:24.788Z,98715.94
2023-05-11T04:44:56.680Z,98708.63
2023-05-11T04:47:25.464Z,98710.25
2023-05-11T04:49:54.287Z,98716.81
2023-05-11T04:52:22.998Z,98714.59
2023-05-11T04:54:53.110Z,98714.66
2023-05-11T04:57:23.286Z,98705.91
2023-05-11T04:59:52.095Z,98713.16
2023-05-11T05:02:20.826Z,98714.00
2023-05-11T05:04:49.547Z,98708.16
2023-05-11T05:07:18.290Z,98703.31
2023-05-11T05:09:47.431Z,98712.28
2023-05-11T05:12:17.228Z,98715.88
2023-05-11T05:14:47.493Z,98713.22
2023-05-11T05:17:16.346Z,98719.22
2023-05-11T05:19:45.111Z,98717.38
2023-05-11T05:22:13.909Z,98718.00
2023-05-11T05:24:43.190Z,98716.91
2023-05-11T05:27:11.857Z,98716.44
2023-05-11T05:29:40.968Z,98714.03
2023-05-11T05:32:12.344Z,98712.22
2023-05-11T05:34:41.377Z,98720.06
2023-05-11T05:37:10.237Z,98718.19
2023-05-11T05:39:38.899Z,98719.84
2023-05-11T05:42:08.360Z,98716.09
2023-05-11T05:44:37.502Z,98717.72
2023-05-11T05:47:07.301Z,98717.44
2023-05-11T05:49:39.498Z,98721.22
2023-05-11T05:52:10.852Z,98719.88
2023-05-11T05:54:40.664Z,98720.19
2023-05-11T05:57:09.436Z,98721.56
2023-05-11T05:59:38.732Z,98718.34
2023-05-11T06:02:07.783Z,98715.69
2023-05-11T06:04:38.166Z,98718.94
2023-05-11T06:07:06.905Z,98727.91
2023-05-11T06:09:39.043Z,98717.38
2023-05-11T06:12:09.368Z,98723.34
2023-05-11T06:14:41.901Z,98726.59
2023-05-11T06:17:10.968Z,98730.09
2023-05-11T06:19:41.384Z,98733.06
2023-05-11T06:22:11.281Z,98729.53
2023-05-11T06:24:40.284Z,98734.13
2023-05-11T06:27:09.139Z,98729.00
2023-05-11T06:29:38.264Z,98723.34
2023-05-11T06:32:07.980Z,98714.75
2023-05-11T06:34:39.385Z,98724.97
2023-05-11T06:37:09.639Z,98722.56
2023-05-11T06:39:38.704Z,98719.31
2023-05-11T06:42:10.318Z,98721.47
2023-05-11T06:44:39.829Z,98729.81
2023-05-11T06:47:09.164Z,98721.72
2023-05-11T06:49:37.822Z,98721.72
2023-05-11T06:52:08.972Z,98722.53
2023-05-11T06:54:38.207Z,98719.81
2023-05-11T06:57:06.981Z,98725.75
2023-05-11T06:59:35.651Z,98727.13
2023-05-11T07:02:04.337Z,98723.88
2023-05-11T07:04:33.076Z,98724.66
2023-05-11T07:07:01.897Z,98721.16
2023-05-11T07:09:32.041Z,98720.59
2023-05-11T07:12:00.806Z,98726.78
2023-05-11T07:14:29.604Z,98721.66
2023-05-11T07:16:58.274Z,98715.13
2023-05-11T07:19:27.249Z,98724.28
2023-05-11T07:21:56.292Z,98718.56
2023-05-11T07:24:24.989Z,98722.28
2023-05-11T07:26:55.859Z,98714.41
2023-05-11T07:29:24.515Z,98719.81
2023-05-11T07:31:53.298Z,98718.72
2023-05-11T07:34:22.044Z,98717.63
2023-05-11T07:36:50.890Z,98730.03
2023-05-11T07:39:19.586Z,98721.38
2023-05-11T07:41:48.315Z,98722.91
2023-05-11T07:44:18.996Z,98722.88
2023-05-11T07:46:47.730Z,98722.03
2023-05-11T07:49:22.673Z,98729.81
2023-05-11T07:51:56.884Z,98721.91
2023-05-11T07:54:26.260Z,98720.50
2023-05-11T07:56:55.034Z,98713.97
2023-05-11T07:59:28.504Z,98723.06
2023-05-11T08:01:57.313Z,98715.63
2023-05-11T08:04:28.134Z,98720.72
2023-05-11T08:06:56.972Z,98716.91
2023-05-11T08:09:25.789Z,98721.13
2023-05-11T08:11:56.591Z,98731.38
2023-05-11T08:14:27.068Z,98726.97
2023-05-11T08:16:55.873Z,98722.88
2023-05-11T08:19:24.500Z,98723.41
2023-05-11T08:21:53.628Z,98724.00
2023-05-11T08:24:22.339Z,98726.66
2023-05-11T08:26:50.986Z,98721.41
2023-05-11T08:29:19.714Z,98724.81
2023-05-11T08:31:51.593Z,98735.53
2023-05-11T08:34:20.543Z,98732.16
2023-05-11T08:36:49.535Z,98731.00
2023-05-11T08:39:32.868Z,98726.53
2023-05-11T08:42:08.583Z,98725.72
2023-05-11T08:44:39.844Z,98724.47
2023-05-11T08:47:22.790Z,98732.78
2023-05-11T08:49:53.610Z,98732.78
2023-05-11T08:52:22.597Z,98724.84
2023-05-11T08:54:51.361Z,98726.13
2023-05-11T08:57:20.680Z,98723.38
2023-05-11T08:59:52.039Z,98728.91
2023-05-11T09:02:22.176Z,98723.00
2023-05-11T09:04:52.989Z,98727.53
2023-05-11T09:07:23.018Z,98729.78
2023-05-11T09:09:51.764Z,98724.03
2023-05-11T09:12:21.629Z,98733.50
2023-05-11T09:14:50.534Z,98718.78
2023-05-11T09:17:19.306Z,98713.63
2023-05-11T09:20:05.971Z,98727.44
2023-05-11T09:22:36.556Z,98725.91
2023-05-11T09:25:06.811Z,98719.19
2023-05-11T09:27:41.891Z,98716.66
2023-05-11T09:30:21.998Z,98709.78
2023-05-11T09:32:53.572Z,98728.78
2023-05-11T09:35:26.512Z,98725.22
2023-05-11T09:38:07.870Z,98721.72
2023-05-11T09:40:39.881Z,98724.91
2023-05-11T09:43:19.030Z,98725.41
2023-05-11T09:45:49.882Z,98710.22
2023-05-11T09:48:32.919Z,98716.44
2023-05-11T09:51:06.496Z,98720.78
2023-05-11T09:53:43.306Z,98721.13
2023-05-11T09:56:13.931Z,98727.84
2023-05-11T09:58:53.267Z,98716.69
2023-05-11T10:01:32.513Z,98717.53
2023-05-11T10:04:21.117Z,98724.66
2023-05-11T10:06:54.928Z,98718.31
2023-05-11T10:09:26.215Z,98721.59
2023-05-11T10:11:56.637Z,98718.44
2023-05-11T10:14:29.445Z,98708.34
2023-05-11T10:17:03.051Z,98705.63
2023-05-11T10:19:32.970Z,98710.59
2023-05-11T10:22:06.181Z,98708.41
2023-05-11T10:24:35.500Z,98706.75
2023-05-11T10:27:05.080Z,98710.28
2023-05-11T10:29:35.232Z,98715.69
2023-05-11T10:32:05.938Z,98714.56
2023-05-11T10:35:25.969Z,98701.97
2023-05-11T10:38:05.940Z,98696.69
2023-05-11T10:40:42.340Z,98701.66
2023-05-11T10:43:47.622Z,98712.84
2023-05-11T10:46:42.815Z,98704.03
2023-05-11T10:49:38.627Z,98704.03
2023-05-11T10:52:30.158Z,98706.94
2023-05-11T10:55:14.667Z,98703.38
2023-05-11T10:58:10.494Z,98709.56
2023-05-11T11:01:37.866Z,98713.78
2023-05-11T11:04:10.059Z,98710.13
2023-05-11T11:06:41.735Z,98712.59
2023-05-11T11:09:15.901Z,98703.66
2023-05-11T11:11:50.289Z,98716.16
2023-05-11T11:14:20.091Z,98723.84
2023-05-11T11:17:27.384Z,98716.66
2023-05-11T11:19:57.439Z,98718.00
2023-05-11T11:22:47.618Z,98712.69
2023-05-11T11:25:53.830Z,98710.41
2023-05-11T11:28:24.795Z,98721.88
2023-05-11T11:31:28.980Z,98723.81
2023-05-11T11:34:01.101Z,98717.38
2023-05-11T11:37:08.729Z,98717.16
2023-05-11T11:40:09.522Z,98717.47
2023-05-11T11:42:44.777Z,98720.66
2023-05-11T11:45:40.028Z,98722.19
2023-05-11T11:48:18.095Z,98715.41
2023-05-11T11:50:49.197Z,98716.44
2023-05-11T11:54:07.191Z,98719.63
2023-05-11T11:56:46.990Z,98720.22
2023-05-11T11:59:17.013Z,98724.56
2023-05-11T12:01:54.737Z,98725.91
2023-05-11T12:04:57.181Z,98727.03
2023-05-11T12:07:28.625Z,98720.44
2023-05-11T12:09:57.850Z,98728.50
2023-05-11T12:12:28.384Z,98709.25
2023-05-11T12:14:57.928Z,98730.25
2023-05-11T12:17:30.956Z,98720.41
2023-05-11T12:20:15.121Z,98730.88
2023-05-11T12:22:44.776Z,98720.09
2023-05-11T12:25:15.988Z,98733.34
2023-05-11T12:27:55.437Z,98729.44
2023-05-11T12:30:26.580Z,98735.94
2023-05-11T12:32:57.882Z,98728.66
2023-05-11T12:35:29.459Z,98727.69
2023-05-11T12:38:00.960Z,98735.69
2023-05-11T12:40:30.050Z,98733.44
2023-05-11T12:43:01.685Z,98743.22
2023-05-11T12:45:30.928Z,98749.94
2023-05-11T12:48:02.133Z,98738.81
2023-05-11T12:50:31.283Z,98741.38
2023-05-11T12:53:15.866Z,98743.63
2023-05-11T12:55:45.619Z,98745.13
2023-05-11T12:58:18.652Z,98744.66
2023-05-11T13:00:55.196Z,98746.91
2023-05-11T13:03:27.526Z,98753.03
2023-05-11T13:06:08.087Z,98754.09
2023-05-11T13:08:38.885Z,98758.47
2023-05-11T13:11:22.503Z,98747.50
2023-05-11T13:13:51.911Z,98746.41
2023-05-11T13:16:30.502Z,98740.47
2023-05-11T13:19:08.313Z,98740.13
2023-05-11T13:21:38.520Z,98742.34
2023-05-11T13:24:09.470Z,98739.28
2023-05-11T13:26:38.376Z,98732.09
2023-05-11T13:29:11.173Z,98738.31
2023-05-11T13:31:47.165Z,98736.09
2023-05-11T13:34:18.636Z,98733.56
2023-05-11T13:36:47.991Z,98734.56
2023-05-11T13:39:16.856Z,98748.78
2023-05-11T13:41:46.238Z,98736.91
2023-05-11T13:44:14.963Z,98729.34
2023-05-11T13:46:43.604Z,98723.97
2023-05-11T13:49:12.465Z,98737.41
2023-05-11T13:51:42.833Z,98728.31
2023-05-11T13:54:13.551Z,98726.50
2023-05-11T13:56:42.331Z,98730.56
2023-05-11T13:59:11.211Z,98730.03
2023-05-11T14:01:39.970Z,98729.03
2023-05-11T14:04:08.665Z,98721.84
2023-05-11T14:06:38.170Z,98723.69
2023-05-11T14:09:08.344Z,98721.66
2023-05-11T14:11:39.313Z,98722.13
2023-05-11T14:14:08.548Z,98723.25
2023-05-11T14:16:37.946Z,98727.25
2023-05-11T14:19:06.779Z,98722.28
2023-05-11T14:21:35.827Z,98719.72
2023-05-11T14:24:14.067Z,98726.03
2023-05-11T14:26:44.380Z,98722.66
2023-05-11T14:29:13.090Z,98716.88
2023-05-11T14:31:42.789Z,98721.22
2023-05-11T14:34:12.491Z,98720.94
2023-05-11T14:36:42.073Z,98709.50
2023-05-11T14:39:11.735Z,98720.28
2023-05-11T14:41:41.344Z,98705.69
2023-05-11T14:44:12.924Z,98712.19
2023-05-11T14:46:41.876Z,98712.75
2023-05-11T14:49:10.829Z,98713.34
2023-05-11T14:51:40.044Z,98709.66
2023-05-11T14:54:08.824Z,98718.31
2023-05-11T14:56:37.449Z,98717.38
2023-05-11T14:59:06.288Z,98719.78
2023-05-11T15:01:36.413Z,98707.88
2023-05-11T15:04:05.376Z,98718.00
2023-05-11T15:06:34.229Z,98709.34
2023-05-11T15:09:03.118Z,98724.44
2023-05-11T15:11:31.807Z,98715.78
2023-05-11T15:14:01.103Z,98712.88
2023-05-11T15:16:29.961Z,98730.19
2023-05-11T15:19:00.654Z,98733.06
2023-05-11T15:21:29.660Z,98744.13
2023-05-11T15:23:58.365Z,98735.63
2023-05-11T15:26:27.387Z,98732.75
2023-05-11T15:28:56.167Z,98740.81
2023-05-11T15:31:24.895Z,98736.97
2023-05-11T15:33:53.781Z,98728.75
2023-05-11T15:36:23.975Z,98735.53
2023-05-11T15:38:52.894Z,98735.34
2023-05-11T15:41:22.159Z,98730.03
2023-05-11T15:43:50.846Z,98734.84
2023-05-11T15:46:19.631Z,98733.72
2023-05-11T15:48:48.502Z,98732.44
2023-05-11T15:51:17.319Z,98745.47
2023-05-11T15:53:47.415Z,98739.03
2023-05-11T15:56:16.060Z,98742.69
2023-05-11T15:58:44.730Z,98744.91
2023-05-11T16:01:13.459Z,98739.34
2023-05-11T16:03:42.346Z,98743.00
2023-05-11T16:06:11.342Z,98751.94
2023-05-11T16:08:40.249Z,98748.91
2023-05-11T16:11:10.357Z,98747.44
2023-05-11T16:13:39.663Z,98753.50
2023-05-11T16:16:09.104Z,98754.47
2023-05-11T16:18:39.235Z,98749.63
2023-05-11T16:21:08.474Z,98765.25
2023-05-11T16:23:37.393Z,98759.25
2023-05-11T16:26:06.220Z,98757.56
2023-05-11T16:28:36.856Z,98755.09
2023-05-11T16:31:05.863Z,98758.53
2023-05-11T16:33:34.963Z,98761.59
2023-05-11T16:36:04.087Z,98758.19
2023-05-11T16:38:33.150Z,98759.78
2023-05-11T16:41:02.314Z,98765.09
2023-05-11T16:43:32.492Z,98758.81
2023-05-11T16:46:03.684Z,98765.97
2023-05-11T16:48:33.027Z,98761.00
2023-05-11T16:51:05.609Z,98766.47
2023-05-11T16:53:34.512Z,98770.66
2023-05-11T16:56:07.680Z,98765.38
2023-05-11T16:58:40.843Z,98775.56
2023-05-11T17:01:12.973Z,98771.31
2023-05-11T17:03:44.269Z,98766.84
2023-05-11T17:06:14.741Z,98771.31
2023-05-11T17:08:43.485Z,98780.59
2023-05-11T17:11:12.578Z,98773.94
2023-05-11T17:13:41.348Z,98773.75
2023-05-11T17:16:11.681Z,98776.97
2023-05-11T17:18:41.484Z,98779.13
2023-05-11T17:21:11.158Z,98781.16
2023-05-11T17:23:41.026Z,98776.06
2023-05-11T17:26:11.527Z,98784.53
2023-05-11T17:28:40.708Z,98784.00
2023-05-11T17:31:13.249Z,98780.91
2023-05-11T17:33:43.446Z,98791.59
2023-05-11T17:36:12.960Z,98792.00
2023-05-11T17:38:42.781Z,98797.44
2023-05-11T17:41:11.531Z,98795.50
2023-05-11T17:43:41.377Z,98791.38
2023-05-11T17:46:13.640Z,98800.44
2023-05-11T17:48:42.781Z,98805.38
2023-05-11T17:51:12.545Z,98806.88
2023-05-11T17:53:42.009Z,98810.31
2023-05-11T17:56:11.952Z,98811.91
2023-05-11T17:58:43.149Z,98809.41
2023-05-11T18:01:14.637Z,98812.13
2023-05-11T18:03:43.878Z,98820.28
2023-05-11T18:06:13.085Z,98818.75
2023-05-11T18:08:41.925Z,98821.88
2023-05-11T18:11:11.309Z,98826.78
2023-05-11T18:13:40.288Z,98837.97
2023-05-11T18:16:10.187Z,98842.28
2023-05-11T18:18:42.378Z,98841.44
2023-05-11T18:21:11.735Z,98849.06
2023-05-11T18:23:40.468Z,98848.06
2023-05-11T18:26:09.233Z,98853.03
2023-05-11T18:28:38.179Z,98852.19
2023-05-11T18:31:06.879Z,98859.22
2023-05-11T18:33:35.526Z,98857.59
2023-05-11T18:36:06.666Z,98860.03
2023-05-11T18:38:35.581Z,98860.56
2023-05-11T18:41:06.374Z,98865.03
2023-05-11T18:43:35.298Z,98869.28
2023-05-11T18:46:09.297Z,98872.19
2023-05-11T18:48:39.092Z,98872.03
2023-05-11T18:51:09.341Z,98871.09
2023-05-11T18:53:38.103Z,98880.31
2023-05-11T18:56:07.115Z,98876.53
2023-05-11T18:58:36.124Z,98875.78
2023-05-11T19:01:05.450Z,98882.47
2023-05-11T19:03:34.548Z,98891.88
2023-05-11T19:06:03.541Z,98888.09
2023-05-11T19:08:33.513Z,98892.47
2023-05-11T19:11:08.051Z,98898.53
2023-05-11T19:13:38.437Z,98895.59
2023-05-11T19:16:07.678Z,98898.72
2023-05-11T19:18:37.183Z,98911.72
2023-05-11T19:21:06.046Z,98905.97
2023-05-11T19:23:36.341Z,98907.84
2023-05-11T19:26:05.156Z,98917.88
2023-05-11T19:28:34.055Z,98910.34
2023-05-11T19:31:17.119Z,98917.47
2023-05-11T19:33:45.932Z,98914.06
2023-05-11T19:36:14.741Z,98912.25
2023-05-11T19:38:44.840Z,98915.94
2023-05-11T19:41:13.596Z,98925.16
2023-05-11T19:43:42.371Z,98922.78
2023-05-11T19:46:11.202Z,98923.66
2023-05-11T19:48:40.153Z,98929.06
2023-05-11T19:51:08.878Z,98922.28
2023-05-11T19:53:37.718Z,98922.84
2023-05-11T19:56:08.684Z,98928.63
2023-05-11T19:58:37.407Z,98926.38
2023-05-11T20:01:06.467Z,98925.56
2023-05-11T20:03:35.397Z,98933.44
2023-05-11T20:06:04.304Z,98934.34
2023-05-11T20:08:33.045Z,98929.19
2023-05-11T20:11:02.372Z,98934.34
2023-05-11T20:13:32.607Z,98937.34
2023-05-11T20:16:01.525Z,98937.44
2023-05-11T20:18:30.637Z,98934.72
2023-05-11T20:20:59.389Z,98928.31
2023-05-11T20:23:28.492Z,98931.06
2023-05-11T20:25:57.245Z,98928.06
2023-05-11T20:28:27.353Z,98937.00
2023-05-11T20:30:58.046Z,98941.63
2023-05-11T20:35:59.088Z,98944.34
2023-05-11T20:38:27.864Z,98943.00
2023-05-11T20:40:59.009Z,98942.44
2023-05-11T20:43:28.008Z,98944.59
2023-05-11T20:46:03.661Z,98941.38
2023-05-11T20:48:40.567Z,98945.16
2023-05-11T20:51:10.203Z,98946.22
2023-05-11T20:53:39.118Z,98935.44
2023-05-11T20:56:10.150Z,98935.75
2023-05-11T20:58:39.280Z,98935.19
2023-05-11T21:01:09.628Z,98936.56
2023-05-11T21:03:38.427Z,98933.06
2023-05-11T21:06:08.779Z,98940.41
2023-05-11T21:08:57.400Z,98940.41
2023-05-11T21:11:26.248Z,98932.28
2023-05-11T21:14:08.229Z,98947.41
2023-05-11T21:16:38.571Z,98941.50
2023-05-11T21:19:08.177Z,98943.66
2023-05-11T21:21:36.950Z,98949.59
2023-05-11T21:24:06.308Z,98944.16
2023-05-11T21:26:35.152Z,98946.59
2023-05-11T21:29:03.913Z,98939.59
2023-05-11T21:31:32.745Z,98945.78
2023-05-11T21:34:02.960Z,98940.66
2023-05-11T21:36:31.720Z,98933.38
2023-05-11T21:39:00.418Z,98944.47
2023-05-11T21:41:29.294Z,98946.34
2023-05-11T21:43:58.052Z,98938.25
2023-05-11T21:46:26.961Z,98942.56
2023-05-11T21:48:55.736Z,98945.81
2023-05-11T21:51:25.901Z,98939.34
2023-05-11T21:53:54.671Z,98939.88
2023-05-11T21:56:23.470Z,98948.78
2023-05-11T21:58:54.230Z,98945.53
2023-05-11T22:01:23.024Z,98948.72
2023-05-11T22:03:51.859Z,98961.47
2023-05-11T22:06:20.530Z,98951.19
2023-05-11T22:08:50.772Z,98954.44
2023-05-11T22:11:21.649Z,98953.63
2023-05-11T22:13:51.171Z,98952.81
2023-05-11T22:16:20.272Z,98957.06
2023-05-11T22:18:49.089Z,98953.88
2023-05-11T22:21:17.806Z,98959.56
2023-05-11T22:23:46.550Z,98959.22
2023-05-11T22:26:16.730Z,98956.78
2023-05-11T22:28:45.582Z,98955.41
2023-05-11T22:31:14.290Z,98958.41
2023-05-11T22:33:43.038Z,98956.78
2023-05-11T22:36:13.150Z,98959.19
2023-05-11T22:38:42.071Z,98958.34
2023-05-11T22:41:10.900Z,98956.66
2023-05-11T22:43:41.038Z,98951.81
2023-05-11T22:46:10.271Z,98952.66
2023-05-11T22:48:39.053Z,98952.63
2023-05-11T22:51:07.776Z,98964.03
2023-05-11T22:53:36.510Z,98959.69
2023-05-11T22:56:06.426Z,98959.16
2023-05-11T22:58:35.399Z,98962.94
2023-05-11T23:01:05.831Z,98963.22
2023-05-11T23:03:34.690Z,98958.09
2023-05-11T23:06:03.384Z,98960.81
2023-05-11T23:08:32.376Z,98961.84
2023-05-11T23:11:01.204Z,98961.03
2023-05-11T23:13:29.984Z,98959.63
2023-05-11T23:15:59.769Z,98954.72
2023-05-11T23:18:30.054Z,98953.56
2023-05-11T23:20:59.335Z,98957.63
2023-05-11T23:23:28.844Z,98960.13
2023-05-11T23:25:57.531Z,98957.69
2023-05-11T23:28:26.360Z,98948.97
2023-05-11T23:30:55.072Z,98952.47
2023-05-11T23:33:23.885Z,98945.75
2023-05-11T23:35:54.845Z,98953.88
2023-05-11T23:38:23.585Z,98950.41
2023-05-11T23:40:52.526Z,98949.34
2023-05-11T23:43:22.125Z,98947.16
2023-05-11T23:45:52.230Z,98946.00
2023-05-11T23:48:23.089Z,98941.66
2023-05-11T23:50:53.297Z,98939.53
2023-05-11T23:53:22.014Z,98946.56
2023-05-11T23:55:50.918Z,98938.22
2023-05-11T23:58:19.642Z,98935.28
